Time;durP1;ratioP1;P1;durP2;ratioP2;P2;SDS_P1;SDS_P2;PMS_P1;PMS_P2;Temp;Humidity;BMP_temperature;BMP_pressure;BME280_temperature;BME280_humidity;BME280_pressure;Samples;Min_cycle;Max_cycle;Signal;HPM_P1;HPM_P2
2022/03/14 00:00:08;;;;;;;6.50;4.00;;;;;;;;;;5025092;28;20053;-78
2022/03/14 00:02:34;;;;;;;7.35;3.60;;;;;;;;;;5007643;28;20030;-78
2022/03/14 00:05:00;;;;;;;6.55;3.88;;;;;;;;;;5009777;28;20028;-78
2022/03/14 00:07:26;;;;;;;7.20;3.47;;;;;;;;;;5010928;28;20026;-78
2022/03/14 00:09:52;;;;;;;7.70;3.95;;;;;;;;;;5010542;28;20109;-78
2022/03/14 00:12:20;;;;;;;7.22;4.05;;;;;;;;;;5009686;28;20094;-78
2022/03/14 00:14:46;;;;;;;7.63;4.10;;;;;;;;;;5027658;28;20026;-79
2022/03/14 00:17:11;;;;;;;10.00;3.97;;;;;;;;;;5009662;28;20026;-78
2022/03/14 00:19:36;;;;;;;7.00;3.78;;;;;;;;;;5009813;28;20017;-78
2022/03/14 00:22:04;;;;;;;7.93;4.22;;;;;;;;;;5009526;28;20021;-78
2022/03/14 00:24:29;;;;;;;5.93;3.67;;;;;;;;;;5026031;28;20044;-78
2022/03/14 00:26:54;;;;;;;6.43;3.53;;;;;;;;;;5009220;28;20077;-78
2022/03/14 00:29:21;;;;;;;7.70;3.95;;;;;;;;;;5009340;28;20278;-78
2022/03/14 00:31:46;;;;;;;8.25;4.47;;;;;;;;;;5023587;28;20057;-78
2022/03/14 00:34:13;;;;;;;7.65;4.25;;;;;;;;;;5004754;28;20037;-79
2022/03/14 00:36:41;;;;;;;7.65;4.15;;;;;;;;;;5023297;28;20030;-77
2022/03/14 00:39:06;;;;;;;9.40;4.53;;;;;;;;;;5025316;28;20030;-78
2022/03/14 00:41:31;;;;;;;7.35;3.95;;;;;;;;;;5025122;28;20033;-78
2022/03/14 00:43:57;;;;;;;8.52;4.30;;;;;;;;;;5025760;28;20041;-78
2022/03/14 00:46:22;;;;;;;9.40;4.68;;;;;;;;;;5025194;28;20040;-78
2022/03/14 00:48:47;;;;;;;8.13;3.95;;;;;;;;;;5025204;28;20467;-78
2022/03/14 00:51:13;;;;;;;8.57;3.60;;;;;;;;;;5024733;28;20101;-78
2022/03/14 00:53:38;;;;;;;7.32;4.05;;;;;;;;;;5007018;28;20041;-78
2022/03/14 00:56:04;;;;;;;9.00;4.15;;;;;;;;;;5025034;28;20036;-79
2022/03/14 00:58:29;;;;;;;7.10;4.15;;;;;;;;;;5025382;28;20033;-78
2022/03/14 01:00:54;;;;;;;7.75;3.90;;;;;;;;;;5025264;28;20033;-78
2022/03/14 01:03:20;;;;;;;10.18;4.15;;;;;;;;;;5026311;28;20098;-79
2022/03/14 01:05:45;;;;;;;8.82;4.90;;;;;;;;;;5010277;28;20418;-79
2022/03/14 01:08:11;;;;;;;8.23;4.20;;;;;;;;;;5027103;28;20032;-78
2022/03/14 01:10:36;;;;;;;6.45;3.90;;;;;;;;;;5026870;28;20366;-78
2022/03/14 01:13:03;;;;;;;6.80;3.80;;;;;;;;;;5026222;28;20026;-79
2022/03/14 01:15:32;;;;;;;8.77;4.28;;;;;;;;;;5007188;28;20049;-78
2022/03/14 01:17:58;;;;;;;7.93;3.90;;;;;;;;;;5025683;28;20397;-79
2022/03/14 01:20:24;;;;;;;8.25;4.40;;;;;;;;;;5009406;28;20565;-79
2022/03/14 01:22:50;;;;;;;8.68;4.57;;;;;;;;;;5029984;28;20030;-78
2022/03/14 01:25:15;;;;;;;7.47;4.28;;;;;;;;;;5029686;28;20030;-79
2022/03/14 01:27:40;;;;;;;11.98;4.50;;;;;;;;;;5011664;28;20044;-78
2022/03/14 01:30:06;;;;;;;6.95;3.80;;;;;;;;;;5027962;28;20034;-78
2022/03/14 01:32:31;;;;;;;8.98;4.03;;;;;;;;;;5025953;28;20402;-79
2022/03/14 01:34:56;;;;;;;7.45;4.38;;;;;;;;;;5009157;28;20037;-77
2022/03/14 01:37:21;;;;;;;7.18;4.03;;;;;;;;;;5026681;28;20387;-78
2022/03/14 01:39:47;;;;;;;8.30;4.45;;;;;;;;;;5004546;28;20030;-77
2022/03/14 01:42:19;;;;;;;10.00;4.72;;;;;;;;;;5024354;28;20034;-77
2022/03/14 01:44:46;;;;;;;8.13;4.07;;;;;;;;;;5024355;28;20022;-78
2022/03/14 01:47:12;;;;;;;7.53;4.05;;;;;;;;;;5027737;28;20459;-78
2022/03/14 01:49:37;;;;;;;8.38;4.75;;;;;;;;;;5027456;28;20094;-78
2022/03/14 01:52:05;;;;;;;8.35;4.25;;;;;;;;;;5025279;28;20033;-78
2022/03/14 01:54:31;;;;;;;8.20;4.18;;;;;;;;;;5010378;28;20093;-78
2022/03/14 01:56:57;;;;;;;8.85;4.47;;;;;;;;;;5027481;28;20030;-78
2022/03/14 01:59:23;;;;;;;7.72;4.15;;;;;;;;;;5010892;28;20209;-78
2022/03/14 02:01:48;;;;;;;7.72;3.97;;;;;;;;;;5009588;28;20030;-78
2022/03/14 02:04:14;;;;;;;10.48;4.32;;;;;;;;;;5008586;28;20033;-78
2022/03/14 02:06:39;;;;;;;7.00;4.18;;;;;;;;;;5026004;28;20026;-78
2022/03/14 02:09:05;;;;;;;7.75;4.28;;;;;;;;;;5026213;28;20022;-78
2022/03/14 02:11:30;;;;;;;7.72;4.25;;;;;;;;;;5025561;28;20235;-78
2022/03/14 02:13:55;;;;;;;7.95;3.90;;;;;;;;;;5029514;28;20026;-79
2022/03/14 02:16:21;;;;;;;6.85;3.83;;;;;;;;;;5006626;28;20030;-78
2022/03/14 02:18:46;;;;;;;8.90;4.50;;;;;;;;;;5024838;28;20075;-78
2022/03/14 02:21:13;;;;;;;9.82;4.38;;;;;;;;;;5025685;28;20026;-78
2022/03/14 02:23:38;;;;;;;8.02;4.40;;;;;;;;;;5009297;28;20026;-78
2022/03/14 02:26:04;;;;;;;6.80;3.83;;;;;;;;;;5027824;28;20061;-78
2022/03/14 02:28:31;;;;;;;7.18;3.85;;;;;;;;;;5024189;28;20022;-79
2022/03/14 02:30:56;;;;;;;7.55;4.18;;;;;;;;;;5025945;28;20052;-78
2022/03/14 02:33:22;;;;;;;9.10;4.10;;;;;;;;;;5023516;28;20406;-78
2022/03/14 02:35:47;;;;;;;8.20;4.18;;;;;;;;;;5027640;28;20025;-79
2022/03/14 02:38:15;;;;;;;6.75;4.22;;;;;;;;;;5007527;28;20026;-78
2022/03/14 02:40:46;;;;;;;9.00;4.40;;;;;;;;;;5008532;28;20089;-78
2022/03/14 02:43:16;;;;;;;7.20;4.32;;;;;;;;;;5009455;28;20114;-78
2022/03/14 02:45:43;;;;;;;9.77;4.47;;;;;;;;;;5024505;28;20034;-79
2022/03/14 02:48:09;;;;;;;8.75;4.18;;;;;;;;;;5022422;28;20060;-77
2022/03/14 02:50:38;;;;;;;8.45;4.07;;;;;;;;;;5005756;28;20109;-77
2022/03/14 02:53:03;;;;;;;7.03;3.88;;;;;;;;;;5024248;28;20052;-78
2022/03/14 02:55:28;;;;;;;10.05;4.50;;;;;;;;;;5022528;28;20034;-77
2022/03/14 02:57:54;;;;;;;9.35;4.50;;;;;;;;;;5006748;28;20029;-78
2022/03/14 03:00:19;;;;;;;10.50;4.55;;;;;;;;;;5021963;28;20379;-78
2022/03/14 03:02:44;;;;;;;9.65;4.88;;;;;;;;;;5024459;28;20030;-78
2022/03/14 03:05:10;;;;;;;8.73;4.70;;;;;;;;;;5007152;28;20391;-79
2022/03/14 03:07:36;;;;;;;8.73;4.47;;;;;;;;;;5025920;28;20057;-79
2022/03/14 03:10:03;;;;;;;11.30;4.65;;;;;;;;;;5006002;28;20062;-78
2022/03/14 03:12:32;;;;;;;16.45;4.30;;;;;;;;;;5008805;28;20018;-78
2022/03/14 03:14:58;;;;;;;10.02;4.45;;;;;;;;;;5024560;28;20045;-80
2022/03/14 03:17:23;;;;;;;11.73;4.28;;;;;;;;;;5006851;28;20026;-79
2022/03/14 03:19:48;;;;;;;9.02;4.43;;;;;;;;;;5007379;28;20033;-78
2022/03/14 03:22:14;;;;;;;9.52;4.78;;;;;;;;;;5026667;28;20382;-79
2022/03/14 03:24:39;;;;;;;10.13;4.85;;;;;;;;;;5025760;28;20029;-77
2022/03/14 03:27:05;;;;;;;8.18;4.63;;;;;;;;;;5026645;28;20058;-79
2022/03/14 03:29:30;;;;;;;8.13;4.05;;;;;;;;;;5009808;28;20076;-79
2022/03/14 03:31:55;;;;;;;9.55;4.63;;;;;;;;;;5026572;28;20026;-79
2022/03/14 03:34:20;;;;;;;11.02;4.85;;;;;;;;;;5008684;28;20033;-79
2022/03/14 03:36:46;;;;;;;9.80;4.40;;;;;;;;;;5026855;28;20026;-78
2022/03/14 03:39:11;;;;;;;9.30;4.57;;;;;;;;;;5027533;28;20028;-80
2022/03/14 03:41:38;;;;;;;9.48;4.20;;;;;;;;;;5027468;28;20029;-79
2022/03/14 03:44:04;;;;;;;10.55;4.85;;;;;;;;;;5026160;28;20053;-80
2022/03/14 03:46:29;;;;;;;9.18;4.68;;;;;;;;;;5027441;28;20033;-79
2022/03/14 03:48:54;;;;;;;9.50;4.60;;;;;;;;;;5025974;28;20036;-78
2022/03/14 03:51:19;;;;;;;7.97;4.70;;;;;;;;;;5027723;28;20394;-78
2022/03/14 03:53:45;;;;;;;8.40;4.38;;;;;;;;;;5005120;28;20037;-79
2022/03/14 03:56:10;;;;;;;8.20;4.45;;;;;;;;;;5026142;28;20186;-78
2022/03/14 03:58:35;;;;;;;9.95;4.47;;;;;;;;;;5008625;28;20026;-78
2022/03/14 04:01:00;;;;;;;8.25;4.70;;;;;;;;;;5024092;28;20025;-77
2022/03/14 04:03:26;;;;;;;7.80;4.38;;;;;;;;;;5005842;28;20491;-78
2022/03/14 04:05:52;;;;;;;9.10;5.00;;;;;;;;;;5025335;28;20041;-79
2022/03/14 04:08:17;;;;;;;12.48;5.30;;;;;;;;;;5025480;28;20036;-78
2022/03/14 04:10:43;;;;;;;8.77;4.50;;;;;;;;;;5024886;28;20050;-78
2022/03/14 04:13:10;;;;;;;8.57;4.65;;;;;;;;;;5027091;28;20025;-79
2022/03/14 04:15:50;;;;;;;8.30;4.60;;;;;;;;;;5009745;28;20072;-78
2022/03/14 04:18:17;;;;;;;9.27;4.45;;;;;;;;;;5010030;28;20022;-79
2022/03/14 04:20:43;;;;;;;8.13;4.28;;;;;;;;;;5027283;28;20471;-79
2022/03/14 04:23:08;;;;;;;8.60;4.53;;;;;;;;;;5009299;28;20117;-79
2022/03/14 04:25:34;;;;;;;9.43;4.50;;;;;;;;;;5026136;28;20438;-78
2022/03/14 04:27:59;;;;;;;8.77;4.32;;;;;;;;;;5026153;28;20125;-79
2022/03/14 04:30:24;;;;;;;10.02;4.70;;;;;;;;;;5009796;28;20033;-79
2022/03/14 04:32:49;;;;;;;15.55;4.93;;;;;;;;;;5024680;28;20395;-78
2022/03/14 04:35:15;;;;;;;10.88;4.35;;;;;;;;;;5026228;28;20029;-78
2022/03/14 04:37:40;;;;;;;8.68;4.38;;;;;;;;;;5009459;28;20029;-79
2022/03/14 04:40:08;;;;;;;8.43;3.97;;;;;;;;;;5026781;28;20026;-78
2022/03/14 04:42:34;;;;;;;8.63;4.20;;;;;;;;;;5023933;28;20026;-80
2022/03/14 04:44:59;;;;;;;6.70;2.65;;;;;;;;;;5024643;28;20026;-78
2022/03/14 04:47:26;;;;;;;7.22;4.18;;;;;;;;;;5007555;28;20029;-78
2022/03/14 04:49:51;;;;;;;8.88;4.28;;;;;;;;;;5005169;28;20022;-78
2022/03/14 04:52:16;;;;;;;12.05;4.97;;;;;;;;;;5006077;28;20022;-78
2022/03/14 04:54:43;;;;;;;8.13;4.20;;;;;;;;;;5027052;28;20101;-78
2022/03/14 04:57:09;;;;;;;7.85;4.28;;;;;;;;;;5029337;28;20081;-78
2022/03/14 04:59:34;;;;;;;10.23;4.60;;;;;;;;;;5027147;28;20052;-78
2022/03/14 05:01:59;;;;;;;10.98;4.75;;;;;;;;;;5027322;28;20089;-79
2022/03/14 05:04:24;;;;;;;8.18;4.32;;;;;;;;;;5028610;28;20026;-78
2022/03/14 05:06:50;;;;;;;8.38;4.35;;;;;;;;;;5011138;28;20022;-78
2022/03/14 05:09:15;;;;;;;7.30;4.38;;;;;;;;;;5010766;28;20033;-78
2022/03/14 05:11:40;;;;;;;8.63;4.20;;;;;;;;;;5028103;28;20407;-78
2022/03/14 05:14:08;;;;;;;6.10;3.35;;;;;;;;;;5026270;28;20385;-79
2022/03/14 05:16:33;;;;;;;8.70;4.28;;;;;;;;;;5007428;28;20030;-79
2022/03/14 05:18:59;;;;;;;10.93;4.57;;;;;;;;;;5026298;28;20435;-79
2022/03/14 05:21:24;;;;;;;10.70;4.22;;;;;;;;;;5009852;28;20022;-79
2022/03/14 05:23:50;;;;;;;9.93;4.35;;;;;;;;;;5011186;28;20029;-79
2022/03/14 05:26:16;;;;;;;8.95;4.47;;;;;;;;;;5011866;28;20037;-78
2022/03/14 05:28:41;;;;;;;9.30;4.30;;;;;;;;;;5030109;28;20128;-80
2022/03/14 05:31:06;;;;;;;6.63;3.53;;;;;;;;;;5026454;28;20026;-80
2022/03/14 05:33:31;;;;;;;11.05;4.15;;;;;;;;;;5025734;28;20024;-78
2022/03/14 05:35:57;;;;;;;7.97;4.13;;;;;;;;;;5027534;28;20370;-78
2022/03/14 05:38:23;;;;;;;9.10;4.18;;;;;;;;;;5027902;28;20518;-78
2022/03/14 05:40:48;;;;;;;6.95;4.05;;;;;;;;;;5029477;28;20026;-78
2022/03/14 05:43:13;;;;;;;8.43;3.67;;;;;;;;;;5008908;28;20049;-78
2022/03/14 05:45:39;;;;;;;5.80;3.35;;;;;;;;;;5010071;28;20053;-77
2022/03/14 05:48:05;;;;;;;4.50;2.92;;;;;;;;;;5026201;28;20029;-79
2022/03/14 05:50:30;;;;;;;8.02;4.32;;;;;;;;;;5005907;28;20088;-78
2022/03/14 05:52:55;;;;;;;8.85;4.50;;;;;;;;;;5025817;28;20053;-77
2022/03/14 05:55:21;;;;;;;7.07;4.35;;;;;;;;;;5025665;28;20025;-78
2022/03/14 05:57:46;;;;;;;9.90;5.15;;;;;;;;;;5011018;28;20032;-78
2022/03/14 06:00:13;;;;;;;12.88;4.63;;;;;;;;;;5028691;28;20139;-78
2022/03/14 06:02:44;;;;;;;7.80;4.32;;;;;;;;;;5026260;28;20462;-79
2022/03/14 06:05:09;;;;;;;9.13;4.95;;;;;;;;;;5027699;28;20101;-79
2022/03/14 06:07:34;;;;;;;11.43;5.25;;;;;;;;;;5027277;28;20029;-78
2022/03/14 06:10:00;;;;;;;8.07;3.65;;;;;;;;;;5026299;28;20057;-79
2022/03/14 06:12:30;;;;;;;8.88;4.90;;;;;;;;;;5024696;28;20022;-78
2022/03/14 06:14:59;;;;;;;8.60;4.75;;;;;;;;;;5026689;28;20037;-78
2022/03/14 06:17:24;;;;;;;8.35;4.43;;;;;;;;;;5008499;28;20079;-78
2022/03/14 06:19:51;;;;;;;9.00;5.30;;;;;;;;;;5020976;28;20029;-78
2022/03/14 06:22:17;;;;;;;9.02;5.43;;;;;;;;;;5023455;28;20022;-77
2022/03/14 06:24:42;;;;;;;10.80;5.13;;;;;;;;;;5024421;28;20030;-78
2022/03/14 06:27:08;;;;;;;9.80;6.47;;;;;;;;;;5007355;28;20026;-78
2022/03/14 06:29:33;;;;;;;7.57;4.60;;;;;;;;;;5006441;28;20515;-78
2022/03/14 06:31:59;;;;;;;12.32;4.63;;;;;;;;;;5024805;28;20300;-79
2022/03/14 06:34:24;;;;;;;11.57;4.53;;;;;;;;;;5023802;28;20022;-78
2022/03/14 06:36:49;;;;;;;9.25;4.88;;;;;;;;;;5022015;28;20030;-78
2022/03/14 06:39:14;;;;;;;10.80;4.93;;;;;;;;;;5018909;28;20022;-78
2022/03/14 06:41:40;;;;;;;9.32;4.22;;;;;;;;;;5018330;28;20022;-77
2022/03/14 06:44:06;;;;;;;10.10;4.78;;;;;;;;;;5003341;28;20078;-79
2022/03/14 06:46:31;;;;;;;8.75;4.88;;;;;;;;;;5019863;28;20037;-78
2022/03/14 06:48:56;;;;;;;8.13;4.57;;;;;;;;;;5002503;28;20022;-79
2022/03/14 06:51:22;;;;;;;8.85;4.47;;;;;;;;;;5020536;28;20049;-78
2022/03/14 06:53:48;;;;;;;9.95;4.90;;;;;;;;;;5020325;28;20033;-79
2022/03/14 06:56:15;;;;;;;8.55;4.63;;;;;;;;;;5020206;28;20521;-78
2022/03/14 06:58:41;;;;;;;7.28;3.95;;;;;;;;;;5000911;28;20048;-78
2022/03/14 07:01:06;;;;;;;19.25;4.07;;;;;;;;;;5019072;28;20483;-78
2022/03/14 07:03:31;;;;;;;9.82;4.88;;;;;;;;;;5019469;28;20036;-78
2022/03/14 07:05:56;;;;;;;7.18;4.22;;;;;;;;;;5018419;28;20029;-78
2022/03/14 07:08:21;;;;;;;8.17;4.40;;;;;;;;;;5018654;28;20018;-78
2022/03/14 07:10:47;;;;;;;5.80;3.67;;;;;;;;;;5019224;28;20339;-78
2022/03/14 07:13:12;;;;;;;8.85;3.88;;;;;;;;;;5018129;28;20477;-77
2022/03/14 07:15:38;;;;;;;7.70;4.43;;;;;;;;;;5020748;28;20085;-77
2022/03/14 07:18:03;;;;;;;7.93;4.07;;;;;;;;;;5019891;28;20053;-78
2022/03/14 07:20:28;;;;;;;5.22;3.03;;;;;;;;;;5019287;28;20018;-79
2022/03/14 07:22:56;;;;;;;10.93;4.57;;;;;;;;;;5020673;28;20033;-79
2022/03/14 07:25:25;;;;;;;7.35;4.50;;;;;;;;;;5022304;28;20049;-78
2022/03/14 07:27:51;;;;;;;12.40;3.90;;;;;;;;;;5022687;28;20033;-79
2022/03/14 07:30:16;;;;;;;10.75;5.05;;;;;;;;;;5022654;28;20093;-77
2022/03/14 07:32:42;;;;;;;8.50;4.20;;;;;;;;;;5018903;28;20056;-78
2022/03/14 07:35:08;;;;;;;7.72;4.35;;;;;;;;;;5024519;28;20048;-78
2022/03/14 07:37:33;;;;;;;7.57;3.92;;;;;;;;;;5026988;28;20165;-79
2022/03/14 07:39:58;;;;;;;8.25;4.15;;;;;;;;;;5026457;28;20029;-79
2022/03/14 07:42:24;;;;;;;12.98;4.88;;;;;;;;;;5023054;28;20021;-79
2022/03/14 07:44:49;;;;;;;12.20;5.30;;;;;;;;;;5023825;28;20054;-78
2022/03/14 07:47:15;;;;;;;9.50;5.00;;;;;;;;;;5022731;28;20364;-77
2022/03/14 07:49:40;;;;;;;7.82;3.72;;;;;;;;;;5021717;28;20144;-78
2022/03/14 07:52:07;;;;;;;8.30;4.70;;;;;;;;;;5022436;28;20033;-78
2022/03/14 07:54:32;;;;;;;10.13;4.13;;;;;;;;;;5020932;28;20041;-78
2022/03/14 07:56:57;;;;;;;7.03;3.63;;;;;;;;;;5006845;28;20021;-78
2022/03/14 07:59:22;;;;;;;8.95;4.65;;;;;;;;;;5024100;28;20050;-79
2022/03/14 08:01:48;;;;;;;7.72;4.38;;;;;;;;;;5024249;28;20022;-78
2022/03/14 08:04:13;;;;;;;7.67;4.47;;;;;;;;;;5024649;28;20567;-78
2022/03/14 08:06:41;;;;;;;8.77;4.50;;;;;;;;;;5024933;28;20267;-78
2022/03/14 08:09:08;;;;;;;7.70;4.75;;;;;;;;;;5021942;28;20033;-77
2022/03/14 08:11:35;;;;;;;8.80;4.25;;;;;;;;;;5004744;28;20026;-78
2022/03/14 08:14:01;;;;;;;9.48;5.03;;;;;;;;;;5003319;28;20033;-77
2022/03/14 08:16:26;;;;;;;8.90;4.60;;;;;;;;;;5004460;28;20064;-77
2022/03/14 08:18:52;;;;;;;6.60;3.72;;;;;;;;;;5023906;28;20022;-78
2022/03/14 08:21:17;;;;;;;9.50;4.97;;;;;;;;;;5020957;28;20026;-77
2022/03/14 08:23:45;;;;;;;8.77;4.88;;;;;;;;;;5020926;28;20108;-79
2022/03/14 08:26:10;;;;;;;12.65;4.82;;;;;;;;;;5022663;28;20040;-79
2022/03/14 08:28:36;;;;;;;7.53;4.18;;;;;;;;;;5003830;28;20045;-78
2022/03/14 08:31:01;;;;;;;7.72;4.40;;;;;;;;;;5025251;28;20402;-78
2022/03/14 08:33:29;;;;;;;11.65;4.70;;;;;;;;;;5028221;28;20430;-78
2022/03/14 08:35:59;;;;;;;12.05;4.75;;;;;;;;;;5027316;28;20395;-78
2022/03/14 08:38:25;;;;;;;9.35;4.78;;;;;;;;;;5026982;28;20037;-78
2022/03/14 08:40:50;;;;;;;7.63;3.67;;;;;;;;;;5010031;28;20021;-78
2022/03/14 08:43:16;;;;;;;11.50;4.93;;;;;;;;;;5028914;28;20052;-79
2022/03/14 08:45:43;;;;;;;8.45;4.88;;;;;;;;;;5029049;28;20026;-78
2022/03/14 08:48:11;;;;;;;11.10;4.75;;;;;;;;;;5028074;28;20117;-78
2022/03/14 08:50:38;;;;;;;5.15;3.50;;;;;;;;;;5030196;28;20030;-78
2022/03/14 08:53:03;;;;;;;8.48;4.40;;;;;;;;;;5031453;28;20093;-79
2022/03/14 08:55:28;;;;;;;10.40;5.40;;;;;;;;;;5031557;28;20025;-79
2022/03/14 08:57:54;;;;;;;9.45;4.90;;;;;;;;;;5013396;28;20121;-79
2022/03/14 09:00:19;;;;;;;6.65;3.90;;;;;;;;;;5027595;28;20026;-78
2022/03/14 09:02:45;;;;;;;9.68;5.00;;;;;;;;;;5028938;28;20030;-77
2022/03/14 09:05:10;;;;;;;9.20;4.82;;;;;;;;;;5029117;28;20321;-78
2022/03/14 09:07:36;;;;;;;8.65;5.38;;;;;;;;;;5011139;28;20018;-78
2022/03/14 09:10:04;;;;;;;10.35;5.30;;;;;;;;;;5027301;28;20069;-77
2022/03/14 09:12:30;;;;;;;9.30;4.43;;;;;;;;;;5023714;28;20058;-77
2022/03/14 09:14:56;;;;;;;9.63;5.38;;;;;;;;;;5025373;28;20487;-78
2022/03/14 09:17:22;;;;;;;8.60;5.03;;;;;;;;;;5009079;28;20100;-79
2022/03/14 09:19:48;;;;;;;10.55;4.80;;;;;;;;;;5010335;28;20022;-78
2022/03/14 09:22:13;;;;;;;8.87;4.60;;;;;;;;;;5027065;28;20032;-78
2022/03/14 09:24:38;;;;;;;7.40;4.75;;;;;;;;;;5027335;28;20255;-78
2022/03/14 09:27:04;;;;;;;7.43;4.68;;;;;;;;;;5026598;28;20486;-78
2022/03/14 09:29:30;;;;;;;8.10;4.50;;;;;;;;;;5023221;28;20032;-77
2022/03/14 09:31:56;;;;;;;9.23;5.15;;;;;;;;;;5020903;28;20097;-78
2022/03/14 09:34:21;;;;;;;8.77;4.97;;;;;;;;;;5018021;28;20028;-78
2022/03/14 09:36:47;;;;;;;9.13;4.25;;;;;;;;;;5019816;28;20045;-79
2022/03/14 09:39:13;;;;;;;10.10;5.03;;;;;;;;;;5019879;28;20018;-79
2022/03/14 09:41:40;;;;;;;18.35;5.13;;;;;;;;;;5016479;28;20509;-79
2022/03/14 09:44:09;;;;;;;13.13;5.60;;;;;;;;;;4999625;28;20018;-77
2022/03/14 09:46:38;;;;;;;11.70;5.28;;;;;;;;;;5019506;28;20026;-76
2022/03/14 09:49:03;;;;;;;8.93;5.05;;;;;;;;;;5016274;28;20022;-79
2022/03/14 09:51:29;;;;;;;8.82;5.00;;;;;;;;;;4998751;28;20083;-78
2022/03/14 09:53:55;;;;;;;9.70;5.20;;;;;;;;;;4998700;28;20033;-76
2022/03/14 09:56:21;;;;;;;12.35;5.55;;;;;;;;;;5016210;28;20045;-77
2022/03/14 09:58:47;;;;;;;10.20;5.60;;;;;;;;;;5016000;28;20093;-77
2022/03/14 10:01:13;;;;;;;9.75;5.03;;;;;;;;;;5015812;28;20030;-77
2022/03/14 10:03:38;;;;;;;11.35;5.55;;;;;;;;;;4998675;28;20030;-77
2022/03/14 10:06:03;;;;;;;12.80;5.43;;;;;;;;;;5016189;28;20030;-77
2022/03/14 10:08:31;;;;;;;7.63;4.53;;;;;;;;;;5016198;28;20356;-77
2022/03/14 10:10:57;;;;;;;7.85;4.38;;;;;;;;;;5015741;28;20487;-77
2022/03/14 10:13:22;;;;;;;13.65;4.57;;;;;;;;;;5016269;28;20032;-77
2022/03/14 10:15:48;;;;;;;10.23;5.20;;;;;;;;;;4998810;28;20026;-77
2022/03/14 10:18:15;;;;;;;7.80;4.97;;;;;;;;;;5016850;28;20034;-77
2022/03/14 10:20:58;;;;;;;8.60;4.70;;;;;;;;;;4999607;28;20022;-76
2022/03/14 10:23:35;;;;;;;10.43;5.03;;;;;;;;;;4999606;28;20076;-77
2022/03/14 10:26:01;;;;;;;12.13;5.20;;;;;;;;;;5025020;28;20029;-78
2022/03/14 10:28:29;;;;;;;11.13;5.63;;;;;;;;;;5021989;28;20061;-77
2022/03/14 10:30:54;;;;;;;8.32;4.40;;;;;;;;;;5000758;28;20069;-77
2022/03/14 10:33:23;;;;;;;16.65;5.80;;;;;;;;;;5017013;28;20450;-77
2022/03/14 10:35:49;;;;;;;12.68;5.78;;;;;;;;;;4999385;28;20030;-77
2022/03/14 10:38:16;;;;;;;11.05;5.65;;;;;;;;;;5015699;28;20029;-77
2022/03/14 10:40:44;;;;;;;12.55;5.70;;;;;;;;;;5016860;28;20025;-77
2022/03/14 10:43:33;;;;;;;9.88;5.22;;;;;;;;;;5016661;28;20108;-77
2022/03/14 10:46:00;;;;;;;13.27;5.57;;;;;;;;;;5017140;28;20025;-76
2022/03/14 10:48:38;;;;;;;18.33;6.30;;;;;;;;;;5016683;28;20029;-77
2022/03/14 10:51:09;;;;;;;10.32;6.05;;;;;;;;;;5016846;28;20046;-77
2022/03/14 10:53:39;;;;;;;13.38;5.85;;;;;;;;;;5019714;28;20041;-77
2022/03/14 10:56:05;;;;;;;13.13;6.00;;;;;;;;;;5020303;28;20467;-77
2022/03/14 10:58:34;;;;;;;12.23;6.20;;;;;;;;;;5016071;28;20093;-77
2022/03/14 11:01:07;;;;;;;10.02;6.05;;;;;;;;;;5015663;28;20026;-77
2022/03/14 11:03:41;;;;;;;19.52;6.20;;;;;;;;;;4997824;28;20034;-77
2022/03/14 11:06:09;;;;;;;10.60;5.93;;;;;;;;;;5015427;28;20061;-77
2022/03/14 11:08:40;;;;;;;11.48;5.78;;;;;;;;;;4997651;28;20025;-77
2022/03/14 11:11:08;;;;;;;10.75;6.30;;;;;;;;;;5016472;28;20041;-79
2022/03/14 11:13:43;;;;;;;9.80;5.95;;;;;;;;;;4998554;28;20030;-77
2022/03/14 11:16:18;;;;;;;15.18;5.90;;;;;;;;;;4999052;28;20490;-78
2022/03/14 11:18:45;;;;;;;11.10;6.10;;;;;;;;;;5001462;28;20038;-78
2022/03/14 11:21:13;;;;;;;11.98;6.00;;;;;;;;;;4998370;28;20014;-76
2022/03/14 11:23:40;;;;;;;12.15;6.20;;;;;;;;;;5015750;28;20029;-78
2022/03/14 11:26:09;;;;;;;10.18;5.93;;;;;;;;;;5022561;28;20056;-78
2022/03/14 11:28:35;;;;;;;12.10;5.70;;;;;;;;;;5005354;28;20411;-77
2022/03/14 11:31:01;;;;;;;10.55;6.05;;;;;;;;;;5017035;28;20021;-78
2022/03/14 11:33:30;;;;;;;12.07;6.00;;;;;;;;;;5015671;28;20087;-77
2022/03/14 11:35:57;;;;;;;10.70;6.45;;;;;;;;;;5015224;28;20030;-77
2022/03/14 11:38:23;;;;;;;9.68;6.50;;;;;;;;;;5016403;28;20048;-77
2022/03/14 11:40:49;;;;;;;14.00;6.85;;;;;;;;;;5020712;28;20021;-78
2022/03/14 11:43:16;;;;;;;12.13;6.20;;;;;;;;;;5019255;28;20037;-77
2022/03/14 11:45:42;;;;;;;9.07;6.32;;;;;;;;;;5015557;28;20081;-77
2022/03/14 11:48:09;;;;;;;10.98;6.07;;;;;;;;;;4998465;28;20447;-78
2022/03/14 11:50:44;;;;;;;12.32;6.68;;;;;;;;;;5016697;28;20026;-77
2022/03/14 11:53:17;;;;;;;10.52;6.03;;;;;;;;;;5015347;28;20025;-77
2022/03/14 11:56:05;;;;;;;12.35;6.72;;;;;;;;;;5016686;28;20033;-77
2022/03/14 11:58:38;;;;;;;10.00;6.30;;;;;;;;;;5015159;28;20030;-78
2022/03/14 12:01:23;;;;;;;9.55;6.10;;;;;;;;;;5015249;28;20026;-77
2022/03/14 12:03:55;;;;;;;11.23;6.60;;;;;;;;;;5019250;28;20081;-78
2022/03/14 12:06:45;;;;;;;10.95;6.43;;;;;;;;;;5016466;28;20053;-78
2022/03/14 12:09:10;;;;;;;13.07;7.18;;;;;;;;;;5000511;28;20117;-78
2022/03/14 12:11:40;;;;;;;10.60;6.32;;;;;;;;;;5019644;28;20054;-78
2022/03/14 12:14:10;;;;;;;9.00;5.82;;;;;;;;;;4999730;28;20475;-78
2022/03/14 12:16:43;;;;;;;10.93;6.30;;;;;;;;;;5017546;28;20032;-77
2022/03/14 12:19:38;;;;;;;15.65;6.53;;;;;;;;;;5017620;28;20025;-77
2022/03/14 12:22:05;;;;;;;13.65;6.63;;;;;;;;;;5015083;28;20052;-77
2022/03/14 12:24:36;;;;;;;11.10;6.05;;;;;;;;;;5015062;28;20025;-78
2022/03/14 12:27:13;;;;;;;11.30;6.47;;;;;;;;;;5015213;28;20034;-76
2022/03/14 12:29:40;;;;;;;12.75;6.88;;;;;;;;;;5002194;28;20121;-77
2022/03/14 12:32:32;;;;;;;10.80;6.60;;;;;;;;;;5016807;28;20033;-77
2022/03/14 12:35:09;;;;;;;10.65;6.32;;;;;;;;;;5013763;28;20050;-78
2022/03/14 12:37:35;;;;;;;12.07;6.63;;;;;;;;;;4996291;28;20033;-76
2022/03/14 12:40:01;;;;;;;14.52;6.82;;;;;;;;;;5013580;28;20034;-77
2022/03/14 12:42:26;;;;;;;12.35;6.82;;;;;;;;;;5013603;28;20080;-77
2022/03/14 12:45:19;;;;;;;15.52;7.22;;;;;;;;;;4996017;28;20445;-77
2022/03/14 12:48:02;;;;;;;12.55;6.57;;;;;;;;;;5015639;28;20028;-76
2022/03/14 12:50:42;;;;;;;13.82;7.07;;;;;;;;;;5013406;28;20510;-78
2022/03/14 12:53:08;;;;;;;15.88;7.03;;;;;;;;;;5013490;28;20029;-77
2022/03/14 12:55:34;;;;;;;11.60;7.05;;;;;;;;;;5013265;28;20026;-77
2022/03/14 12:58:00;;;;;;;9.82;6.28;;;;;;;;;;5014133;28;20386;-77
2022/03/14 13:00:26;;;;;;;12.48;7.25;;;;;;;;;;5013876;28;20030;-76
2022/03/14 13:02:51;;;;;;;10.57;6.53;;;;;;;;;;5016611;28;20487;-76
2022/03/14 13:05:20;;;;;;;10.77;6.70;;;;;;;;;;5014141;28;20030;-75
2022/03/14 13:08:02;;;;;;;9.63;6.28;;;;;;;;;;4996190;28;20029;-76
2022/03/14 13:10:47;;;;;;;12.27;6.78;;;;;;;;;;5014181;28;20104;-77
2022/03/14 13:13:21;;;;;;;13.60;6.90;;;;;;;;;;5014058;28;20026;-77
2022/03/14 13:16:09;;;;;;;10.68;6.88;;;;;;;;;;5015596;28;20041;-76
2022/03/14 13:18:37;;;;;;;11.57;7.10;;;;;;;;;;5018592;28;20025;-77
2022/03/14 13:21:21;;;;;;;12.70;7.13;;;;;;;;;;5017976;28;20123;-77
2022/03/14 13:23:52;;;;;;;13.90;7.38;;;;;;;;;;5000139;28;20069;-77
2022/03/14 13:26:20;;;;;;;10.55;6.38;;;;;;;;;;5001219;28;20038;-77
2022/03/14 13:28:45;;;;;;;14.18;7.70;;;;;;;;;;5019010;28;20426;-77
2022/03/14 13:31:10;;;;;;;13.02;7.53;;;;;;;;;;5018582;28;20030;-77
2022/03/14 13:33:38;;;;;;;14.80;7.90;;;;;;;;;;5018388;28;20332;-77
2022/03/14 13:36:09;;;;;;;11.40;6.93;;;;;;;;;;5018596;28;20259;-77
2022/03/14 13:38:41;;;;;;;13.25;7.20;;;;;;;;;;5019469;28;20564;-78
2022/03/14 13:41:06;;;;;;;16.30;7.00;;;;;;;;;;5018516;28;20376;-78
2022/03/14 13:43:32;;;;;;;13.53;7.80;;;;;;;;;;5017863;28;20088;-77
2022/03/14 13:46:29;;;;;;;13.38;7.78;;;;;;;;;;5019657;28;20033;-77
2022/03/14 13:49:14;;;;;;;14.98;8.25;;;;;;;;;;5017797;28;20026;-77
2022/03/14 13:51:57;;;;;;;15.60;7.53;;;;;;;;;;5017964;28;20034;-76
2022/03/14 13:54:32;;;;;;;12.05;7.55;;;;;;;;;;5016413;28;20033;-77
2022/03/14 13:57:03;;;;;;;15.38;7.75;;;;;;;;;;5019058;28;20030;-77
2022/03/14 13:59:31;;;;;;;12.98;7.53;;;;;;;;;;5021607;28;20032;-77
2022/03/14 14:02:07;;;;;;;15.70;8.15;;;;;;;;;;5028289;28;20077;-77
2022/03/14 14:04:36;;;;;;;13.57;7.50;;;;;;;;;;5017606;28;20045;-77
2022/03/14 14:07:11;;;;;;;14.15;7.30;;;;;;;;;;5023213;28;20029;-77
2022/03/14 14:09:41;;;;;;;14.43;8.30;;;;;;;;;;5025948;28;20026;-77
2022/03/14 14:12:19;;;;;;;11.65;7.55;;;;;;;;;;5027482;28;20026;-77
2022/03/14 14:14:56;;;;;;;12.30;6.93;;;;;;;;;;4999503;28;20482;-77
2022/03/14 14:17:36;;;;;;;11.15;7.20;;;;;;;;;;5016778;28;20391;-77
2022/03/14 14:20:03;;;;;;;10.70;7.00;;;;;;;;;;5016916;28;20033;-78
2022/03/14 14:22:39;;;;;;;15.05;6.97;;;;;;;;;;4998735;28;20072;-78
2022/03/14 14:25:17;;;;;;;12.43;6.45;;;;;;;;;;5018299;28;20034;-77
2022/03/14 14:27:52;;;;;;;10.05;6.55;;;;;;;;;;5016914;28;20029;-78
2022/03/14 14:30:44;;;;;;;13.07;7.05;;;;;;;;;;5020049;28;20108;-77
2022/03/14 14:33:14;;;;;;;14.95;7.13;;;;;;;;;;5017183;28;20101;-79
2022/03/14 14:35:42;;;;;;;14.73;6.95;;;;;;;;;;5017189;28;20022;-77
2022/03/14 14:38:09;;;;;;;15.00;7.40;;;;;;;;;;5017510;28;20448;-76
2022/03/14 14:40:52;;;;;;;10.15;6.30;;;;;;;;;;5017160;28;20045;-77